APL Jeddah — S6HU4 — position and weather

sailwx.info

Track history (hours):
 
Tides and Currents Weather Stations Pressure Air Temp Water Temp Dewpoint Dewpoint Depression Visibility Wind Speed Wind Dir Waves Ship Positions

APL Jeddah

Last reported at 2019-Jun-17 19:03 UTC. Time now 2019-Jun-19 08:45 UTC.
Position N 14°30' E 120°44'.

Length 207 m; draft 9.4 m.

Type: Cargo ship. MMSI: 563478538.

Date/timePositionNaut miles runAvg speedWind from/ knotsBaromVisibWave heightAir tempDewpointWater temp
2019-Jun-17 19:03N 14°30' E 120°44'10 0.5
2019-Jun-16 23:24N 14°36' E 120°53'410.4
2019-Jun-16 22:59N 14°33' E 120°49'58915.0
2019-Jun-15 07:37N 22°08' E 114°13'214.2
2019-Jun-15 07:30N 22°09' E 114°12'712.2
2019-Jun-15 06:56N 22°14' E 114°08'4 8.8
2019-Jun-15 06:30N 22°18' E 114°06'510.1
2019-Jun-15 06:00N 22°21' E 114°01'713.1
2019-Jun-15 05:29N 22°22' E 113°54'4 8.0
2019-Jun-15 04:57N 22°27' E 113°53'1 0.7
2019-Jun-15 02:51N 22°28' E 113°53'0 0.0
2019-Jun-15 02:13N 22°28' E 113°53'0 0.0
2019-Jun-15 01:45N 22°28' E 113°53'0 0.0
2019-Jun-14 23:57N 22°28' E 113°53'0 0.0
2019-Jun-14 23:30N 22°28' E 113°53'0 0.0
2019-Jun-14 23:00N 22°28' E 113°53'0 0.0
2019-Jun-14 22:24N 22°28' E 113°53'0 0.0
2019-Jun-14 21:57N 22°28' E 113°53'0 0.0
2019-Jun-14 21:21N 22°28' E 113°53'0 0.0
2019-Jun-14 21:00N 22°28' E 113°53'0 0.1
2019-Jun-14 20:28N 22°28' E 113°53'0 0.1
2019-Jun-14 19:57N 22°28' E 113°53'0 0.0
2019-Jun-14 19:18N 22°28' E 113°53'0 0.0
2019-Jun-14 18:57N 22°28' E 113°53'0 0.0
2019-Jun-14 17:57N 22°28' E 113°53'0 0.1
2019-Jun-14 17:21N 22°28' E 113°53'0 0.1
2019-Jun-14 16:57N 22°28' E 113°53'0 0.0
2019-Jun-14 16:16N 22°28' E 113°53'0 0.0
2019-Jun-14 15:57N 22°28' E 113°53'0 0.0
2019-Jun-14 14:18N 22°28' E 113°53'0 0.0
2019-Jun-14 12:19N 22°28' E 113°53'0 0.6
2019-Jun-14 11:58N 22°28' E 113°52'4 8.1
2019-Jun-14 11:30N 22°24' E 113°54'714.2
2019-Jun-14 11:00N 22°21' E 114°00'510.9
2019-Jun-14 10:30N 22°19' E 114°06'1310.4
2019-Jun-14 09:16N 22°08' E 114°14'1013.4
2019-Jun-14 08:31N 22°07' E 114°03'114.7
2019-Jun-14 08:27N 22°07' E 114°02'714.6
2019-Jun-14 08:00N 22°07' E 113°55'612.6
2019-Jun-14 07:30N 22°07' E 113°48'612.4
2019-Jun-14 06:59N 22°14' E 113°48'715.6
2019-Jun-14 06:30N 22°21' E 113°47'815.2
2019-Jun-14 06:00N 22°29' E 113°45'815.3
2019-Jun-14 05:30N 22°36' E 113°43'2 0.6
2019-Jun-14 02:07N 22°38' E 113°41'0 0.0
2019-Jun-14 01:01N 22°38' E 113°41'0 0.4
2019-Jun-14 00:22N 22°37' E 113°41'4 9.3
2019-Jun-14 00:00N 22°34' E 113°43'713.9
2019-Jun-13 23:29N 22°27' E 113°45'714.3
2019-Jun-13 23:00N 22°21' E 113°48'715.0
2019-Jun-13 22:30N 22°13' E 113°48'610.9
2019-Jun-13 21:59N 22°08' E 113°48'4 7.6
2019-Jun-13 21:30N 22°06' E 113°52'611.4
2019-Jun-13 21:00N 22°08' E 113°58'1 2.3
2019-Jun-13 20:28N 22°08' E 113°59'0 0.4
2019-Jun-13 19:58N 22°08' E 113°59'0 0.1
2019-Jun-13 19:25N 22°08' E 113°59'1 1.5
2019-Jun-13 19:00N 22°08' E 114°00'10 5.5
2019-Jun-13 17:17N 22°14' E 114°08'311.7
2019-Jun-13 17:01N 22°17' E 114°06'3 6.1
2019-Jun-13 16:30N 22°20' E 114°07'0 0.7
2019-Jun-13 15:59N 22°20' E 114°08'0 0.0
2019-Jun-13 15:26N 22°20' E 114°08'0 0.0
2019-Jun-13 14:53N 22°20' E 114°08'0 0.0
2019-Jun-13 14:30N 22°20' E 114°08'0 0.0
2019-Jun-13 14:00N 22°20' E 114°08'0 0.0
2019-Jun-13 13:30N 22°20' E 114°08'0 0.0
2019-Jun-13 13:00N 22°20' E 114°08'0 0.0
2019-Jun-13 12:30N 22°20' E 114°08'0 0.0
2019-Jun-13 12:00N 22°20' E 114°08'0 0.0
2019-Jun-13 11:30N 22°20' E 114°08'0 0.0
2019-Jun-13 11:00N 22°20' E 114°08'0 0.0
2019-Jun-13 10:30N 22°20' E 114°08'0 0.3
2019-Jun-13 10:01N 22°20' E 114°08'3 6.0
2019-Jun-13 09:31N 22°18' E 114°05'0 0.3
2019-Jun-13 08:58N 22°18' E 114°05'0 0.1
2019-Jun-13 08:28N 22°18' E 114°05'0 0.0
2019-Jun-13 07:58N 22°18' E 114°05'0 0.2
2019-Jun-13 07:28N 22°18' E 114°05'0 0.1
2019-Jun-13 06:58N 22°18' E 114°05'0 0.1
2019-Jun-13 06:28N 22°18' E 114°05'0 0.1
2019-Jun-13 05:55N 22°18' E 114°05'0 0.0
2019-Jun-13 05:28N 22°18' E 114°05'0 0.0
2019-Jun-13 04:58N 22°18' E 114°05'0 0.0
2019-Jun-13 04:28N 22°18' E 114°05'0 0.0
2019-Jun-13 03:55N 22°18' E 114°05'0 0.0
2019-Jun-13 03:28N 22°18' E 114°05'0 0.0
2019-Jun-13 02:58N 22°18' E 114°05'0 0.1
2019-Jun-13 02:25N 22°18' E 114°05'0 0.0
2019-Jun-13 01:58N 22°18' E 114°05'0 0.0
2019-Jun-13 01:28N 22°18' E 114°05'0 0.1
2019-Jun-13 00:55N 22°18' E 114°05'0 0.1
2019-Jun-13 00:28N 22°18' E 114°05'0 0.1
2019-Jun-12 23:58N 22°18' E 114°05'0 0.1
2019-Jun-12 23:28N 22°18' E 114°05'0 0.1
2019-Jun-12 22:58N 22°18' E 114°05'0 0.0
2019-Jun-12 22:28N 22°18' E 114°05'0 0.1
2019-Jun-12 21:58N 22°18' E 114°05'0 0.2
2019-Jun-12 21:29N 22°18' E 114°05'3 5.7
2019-Jun-12 21:01N 22°20' E 114°07'0 0.3
2019-Jun-12 20:19N 22°20' E 114°07'0 0.0
2019-Jun-12 19:58N 22°20' E 114°07'0 0.0
2019-Jun-12 19:28N 22°20' E 114°07'0 0.0
2019-Jun-12 18:58N 22°20' E 114°07'0 0.0
2019-Jun-12 18:25N 22°20' E 114°07'0 0.0
2019-Jun-12 17:52N 22°20' E 114°07'0 0.0
2019-Jun-12 17:28N 22°20' E 114°07'0 0.0
2019-Jun-12 16:58N 22°20' E 114°07'0 0.0
2019-Jun-12 16:25N 22°20' E 114°07'0 0.0
2019-Jun-12 15:58N 22°20' E 114°07'0 0.0
2019-Jun-12 15:28N 22°20' E 114°07'0 0.0
2019-Jun-12 14:58N 22°20' E 114°07'0 0.0
2019-Jun-12 14:28N 22°20' E 114°07'0 0.0
2019-Jun-12 13:58N 22°20' E 114°07'0 0.0
2019-Jun-12 13:25N 22°20' E 114°07'0 0.0
2019-Jun-12 12:58N 22°20' E 114°07'0 0.0
2019-Jun-12 12:25N 22°20' E 114°07'0 0.0
2019-Jun-12 11:55N 22°20' E 114°07'0 0.0
2019-Jun-12 11:25N 22°20' E 114°07'0 0.0
2019-Jun-12 10:58N 22°20' E 114°07'0 0.0
2019-Jun-12 10:28N 22°20' E 114°07'0 0.0
2019-Jun-12 09:58N 22°20' E 114°07'0 0.0
2019-Jun-12 09:28N 22°20' E 114°07'0 0.0
2019-Jun-12 08:58N 22°20' E 114°07'0 0.0
2019-Jun-12 08:28N 22°20' E 114°07'0 0.0
2019-Jun-12 07:59N 22°20' E 114°07'0 0.0
2019-Jun-12 07:25N 22°20' E 114°07'0 0.0
2019-Jun-12 06:58N 22°20' E 114°07'0 0.0
2019-Jun-12 06:28N 22°20' E 114°07'0 0.0
2019-Jun-12 05:58N 22°20' E 114°07'0 0.0
2019-Jun-12 05:28N 22°20' E 114°07'0 0.0
2019-Jun-12 04:58N 22°20' E 114°07'0 0.0
2019-Jun-12 04:25N 22°20' E 114°07'0 0.0
2019-Jun-12 03:58N 22°20' E 114°07'0 0.0
2019-Jun-12 03:25N 22°20' E 114°07'0 0.0
2019-Jun-12 02:58N 22°20' E 114°07'0 0.0
2019-Jun-12 02:28N 22°20' E 114°07'0 0.0
2019-Jun-12 01:28N 22°20' E 114°07'0 1.0
2019-Jun-12 01:00N 22°20' E 114°07'3 4.8
2019-Jun-12 00:27N 22°18' E 114°05'0 0.1
2019-Jun-12 00:00N 22°18' E 114°05'0 0.0
2019-Jun-11 23:30N 22°18' E 114°05'0 0.0
2019-Jun-11 23:00N 22°18' E 114°05'0 0.1
2019-Jun-11 22:24N 22°18' E 114°05'0 0.1
2019-Jun-11 21:57N 22°18' E 114°05'0 0.1
2019-Jun-11 21:30N 22°18' E 114°05'0 0.1
2019-Jun-11 21:00N 22°18' E 114°05'0 0.1
2019-Jun-11 20:30N 22°18' E 114°05'0 0.0
2019-Jun-11 20:00N 22°18' E 114°05'2 3.6
2019-Jun-11 19:30N 22°20' E 114°05'611.1
2019-Jun-11 19:00N 22°21' E 113°59'8 7.7
2019-Jun-11 17:55N 22°27' E 113°53'0 0.2
2019-Jun-11 17:10N 22°27' E 113°53'0 0.0
2019-Jun-11 16:55N 22°27' E 113°53'0 0.0
2019-Jun-11 16:15N 22°27' E 113°53'0 0.0
2019-Jun-11 15:55N 22°27' E 113°53'0 0.0
2019-Jun-11 15:30N 22°27' E 113°53'0 0.0
2019-Jun-11 14:55N 22°27' E 113°53'0 0.0
2019-Jun-11 14:14N 22°27' E 113°53'0 0.0
2019-Jun-11 14:00N 22°27' E 113°53'0 0.0
2019-Jun-11 13:14N 22°27' E 113°53'0 0.0
2019-Jun-11 12:54N 22°27' E 113°53'0 0.0
2019-Jun-11 12:14N 22°27' E 113°53'0 0.0
2019-Jun-11 12:00N 22°27' E 113°53'0 0.0
2019-Jun-11 11:11N 22°27' E 113°53'0 0.0
2019-Jun-11 10:59N 22°27' E 113°53'0 0.0
2019-Jun-11 10:30N 22°27' E 113°53'0 0.0
2019-Jun-11 09:33N 22°27' E 113°53'0 0.1
2019-Jun-11 09:13N 22°27' E 113°53'0 0.1
2019-Jun-11 09:00N 22°27' E 113°53'0 0.6
2019-Jun-11 08:30N 22°27' E 113°53'3 6.0
2019-Jun-11 07:59N 22°24' E 113°54'5 9.9
2019-Jun-11 07:30N 22°21' E 113°58'611.8
2019-Jun-11 07:01N 22°21' E 114°04'611.2
2019-Jun-11 06:29N 22°16' E 114°07'41314.8
2019-Jun-10 02:37N 25°24' E 120°49'615.5
2019-Jun-10 02:15N 25°27' E 120°54'415.7
2019-Jun-10 01:59N 25°30' E 120°57'1015.6
2019-Jun-10 01:21N 25°36' E 121°06'715.3
2019-Jun-10 00:55N 25°40' E 121°12'715.4
2019-Jun-10 00:26N 25°45' E 121°18'1015.8
2019-Jun-09 23:47N 25°51' E 121°27'83416.7
2019-Jun-07 21:48N 33°38' E 134°43'1117.1
2019-Jun-07 21:11N 33°46' E 134°51'317.4
2019-Jun-07 21:00N 33°49' E 134°54'816.9
2019-Jun-07 20:30N 33°56' E 134°57'918.2
2019-Jun-07 20:00N 34°05' E 134°57'816.7
2019-Jun-07 19:30N 34°14' E 134°58'714.9
2019-Jun-07 19:00N 34°21' E 135°00'917.1
2019-Jun-07 18:30N 34°27' E 135°07'917.3
2019-Jun-07 18:00N 34°34' E 135°14'611.9
2019-Jun-07 17:30N 34°40' E 135°14'0 0.8
2019-Jun-07 17:00N 34°40' E 135°14'0 0.0
2019-Jun-07 16:24N 34°40' E 135°14'0 0.0
2019-Jun-07 15:53N 34°40' E 135°14'0 0.0
2019-Jun-07 15:29N 34°40' E 135°14'0 0.0
2019-Jun-07 14:53N 34°40' E 135°14'0 0.0
2019-Jun-07 14:23N 34°40' E 135°14'0 0.0
2019-Jun-07 13:59N 34°40' E 135°14'0 0.0
2019-Jun-07 13:29N 34°40' E 135°14'0 0.0
2019-Jun-07 12:59N 34°40' E 135°14'0 0.0
2019-Jun-07 12:30N 34°40' E 135°14'0 0.0
2019-Jun-07 11:59N 34°40' E 135°14'0 0.0
2019-Jun-07 11:30N 34°40' E 135°14'0 0.0
2019-Jun-07 10:59N 34°40' E 135°14'0 0.0
2019-Jun-07 10:29N 34°40' E 135°14'0 0.0
2019-Jun-07 10:00N 34°40' E 135°14'0 0.0
2019-Jun-07 09:29N 34°40' E 135°14'0 0.0
2019-Jun-07 08:59N 34°40' E 135°14'0 0.0
2019-Jun-07 08:29N 34°40' E 135°14'0 0.0
2019-Jun-07 07:53N 34°40' E 135°14'0 0.0
2019-Jun-07 07:29N 34°40' E 135°14'0 0.0
2019-Jun-07 06:59N 34°40' E 135°14'0 0.0
2019-Jun-07 06:29N 34°40' E 135°14'0 0.0
2019-Jun-07 05:35N 34°40' E 135°14'0 0.0
2019-Jun-07 05:29N 34°40' E 135°14'0 0.0
2019-Jun-07 04:59N 34°40' E 135°14'0 0.0
2019-Jun-07 04:26N 34°40' E 135°14'0 0.0
2019-Jun-07 03:59N 34°40' E 135°14'0 0.0
2019-Jun-07 03:29N 34°40' E 135°14'0 0.0
2019-Jun-07 03:00N 34°40' E 135°14'0 0.0
2019-Jun-07 02:30N 34°40' E 135°14'0 0.0
2019-Jun-07 01:59N 34°40' E 135°14'0 0.0
2019-Jun-07 01:23N 34°40' E 135°14'0 0.0
2019-Jun-07 00:59N 34°40' E 135°14'0 0.1
2019-Jun-07 00:29N 34°40' E 135°14'0 0.1
2019-Jun-06 23:53N 34°40' E 135°14'0 0.1
2019-Jun-06 23:29N 34°40' E 135°14'0 0.1
2019-Jun-06 22:41N 34°40' E 135°14'0 0.2
2019-Jun-06 22:29N 34°40' E 135°14'2 4.4
2019-Jun-06 22:00N 34°39' E 135°16'1 1.9
2019-Jun-06 21:28N 34°38' E 135°16'0 0.1
2019-Jun-06 20:58N 34°38' E 135°16'0 0.0
2019-Jun-06 20:28N 34°38' E 135°16'0 0.2
2019-Jun-06 19:58N 34°38' E 135°16'0 0.1
2019-Jun-06 19:28N 34°38' E 135°16'0 0.0
2019-Jun-06 18:58N 34°38' E 135°16'0 0.0
2019-Jun-06 18:28N 34°38' E 135°16'0 0.0
2019-Jun-06 17:58N 34°38' E 135°16'0 0.0
2019-Jun-06 17:28N 34°38' E 135°16'0 0.0
2019-Jun-06 16:58N 34°38' E 135°16'0 0.0
2019-Jun-06 16:28N 34°38' E 135°16'0 0.0
2019-Jun-06 15:58N 34°37' E 135°16'0 0.1
2019-Jun-06 15:28N 34°37' E 135°16'0 0.1
2019-Jun-06 14:58N 34°37' E 135°16'0 0.2
2019-Jun-06 14:28N 34°38' E 135°16'0 0.1
2019-Jun-06 13:58N 34°38' E 135°16'0 0.0
2019-Jun-06 13:28N 34°38' E 135°16'0 0.0
2019-Jun-06 12:58N 34°38' E 135°16'0 0.0
2019-Jun-06 12:28N 34°38' E 135°16'0 0.0
2019-Jun-06 11:58N 34°38' E 135°16'0 0.0
2019-Jun-06 11:28N 34°38' E 135°16'0 0.1
2019-Jun-06 10:58N 34°38' E 135°16'0 0.1
2019-Jun-06 10:28N 34°38' E 135°16'0 0.0
2019-Jun-06 09:58N 34°38' E 135°16'0 0.0
2019-Jun-06 09:28N 34°38' E 135°16'0 0.0
2019-Jun-06 08:58N 34°38' E 135°16'0 0.0
2019-Jun-06 08:28N 34°38' E 135°16'0 0.0
2019-Jun-06 07:58N 34°38' E 135°16'0 0.0
2019-Jun-06 07:28N 34°38' E 135°16'0 0.0
2019-Jun-06 06:52N 34°38' E 135°16'0 0.1
2019-Jun-06 06:28N 34°38' E 135°16'0 0.0
2019-Jun-06 05:55N 34°38' E 135°16'0 0.2
2019-Jun-06 05:28N 34°38' E 135°16'0 0.2
2019-Jun-06 04:58N 34°38' E 135°16'0 0.1
2019-Jun-06 04:28N 34°38' E 135°16'0 0.0
2019-Jun-06 03:55N 34°38' E 135°16'0 0.1
2019-Jun-06 03:28N 34°38' E 135°16'0 0.0
2019-Jun-06 02:58N 34°38' E 135°16'0 0.0
2019-Jun-06 02:28N 34°38' E 135°16'0 0.0
2019-Jun-06 01:58N 34°38' E 135°16'0 0.0
2019-Jun-06 01:28N 34°38' E 135°16'0 0.0
2019-Jun-06 00:58N 34°38' E 135°16'0 0.0
2019-Jun-06 00:28N 34°38' E 135°16'0 0.0
2019-Jun-05 23:58N 34°38' E 135°16'0 0.0
2019-Jun-05 23:28N 34°38' E 135°16'0 0.0
2019-Jun-05 22:58N 34°38' E 135°16'0 0.2
2019-Jun-05 22:31N 34°38' E 135°16'2 4.7
2019-Jun-05 22:01N 34°35' E 135°15'816.7
2019-Jun-05 21:31N 34°29' E 135°09'816.9
2019-Jun-05 21:00N 34°22' E 135°03'815.9
2019-Jun-05 20:30N 34°15' E 134°59'713.6
2019-Jun-05 20:00N 34°08' E 134°59'3 6.3
2019-Jun-05 19:30N 34°05' E 134°59'713.3
2019-Jun-05 19:00N 33°58' E 134°59'816.1
2019-Jun-05 18:29N 33°50' E 134°58'917.0
2019-Jun-05 17:59N 33°42' E 135°03'  
Track history (hours):
 
Tides and Currents Weather Stations Pressure Air Temp Water Temp Dewpoint Dewpoint Depression Visibility Wind Speed Wind Dir Waves Ship Positions

APL Jeddah

Last reported at 2019-Jun-17 19:03 UTC. Time now 2019-Jun-19 08:45 UTC.
Position N 14°30' E 120°44'.

Length 207 m; draft 9.4 m.

Type: Cargo ship. MMSI: 563478538.

Date/timePositionNaut miles runAvg speedWind from/ knotsBaromVisibWave heightAir tempDewpointWater temp
2019-Jun-17 19:03N 14°30' E 120°44'10 0.5
2019-Jun-16 23:24N 14°36' E 120°53'410.4
2019-Jun-16 22:59N 14°33' E 120°49'58915.0
2019-Jun-15 07:37N 22°08' E 114°13'214.2
2019-Jun-15 07:30N 22°09' E 114°12'712.2
2019-Jun-15 06:56N 22°14' E 114°08'4 8.8
2019-Jun-15 06:30N 22°18' E 114°06'510.1
2019-Jun-15 06:00N 22°21' E 114°01'713.1
2019-Jun-15 05:29N 22°22' E 113°54'4 8.0
2019-Jun-15 04:57N 22°27' E 113°53'1 0.7
2019-Jun-15 02:51N 22°28' E 113°53'0 0.0
2019-Jun-15 02:13N 22°28' E 113°53'0 0.0
2019-Jun-15 01:45N 22°28' E 113°53'0 0.0
2019-Jun-14 23:57N 22°28' E 113°53'0 0.0
2019-Jun-14 23:30N 22°28' E 113°53'0 0.0
2019-Jun-14 23:00N 22°28' E 113°53'0 0.0
2019-Jun-14 22:24N 22°28' E 113°53'0 0.0
2019-Jun-14 21:57N 22°28' E 113°53'0 0.0
2019-Jun-14 21:21N 22°28' E 113°53'0 0.0
2019-Jun-14 21:00N 22°28' E 113°53'0 0.1
2019-Jun-14 20:28N 22°28' E 113°53'0 0.1
2019-Jun-14 19:57N 22°28' E 113°53'0 0.0
2019-Jun-14 19:18N 22°28' E 113°53'0 0.0
2019-Jun-14 18:57N 22°28' E 113°53'0 0.0
2019-Jun-14 17:57N 22°28' E 113°53'0 0.1
2019-Jun-14 17:21N 22°28' E 113°53'0 0.1
2019-Jun-14 16:57N 22°28' E 113°53'0 0.0
2019-Jun-14 16:16N 22°28' E 113°53'0 0.0
2019-Jun-14 15:57N 22°28' E 113°53'0 0.0
2019-Jun-14 14:18N 22°28' E 113°53'0 0.0
2019-Jun-14 12:19N 22°28' E 113°53'0 0.6
2019-Jun-14 11:58N 22°28' E 113°52'4 8.1
2019-Jun-14 11:30N 22°24' E 113°54'714.2
2019-Jun-14 11:00N 22°21' E 114°00'510.9
2019-Jun-14 10:30N 22°19' E 114°06'1310.4
2019-Jun-14 09:16N 22°08' E 114°14'1013.4
2019-Jun-14 08:31N 22°07' E 114°03'114.7
2019-Jun-14 08:27N 22°07' E 114°02'714.6
2019-Jun-14 08:00N 22°07' E 113°55'612.6
2019-Jun-14 07:30N 22°07' E 113°48'612.4
2019-Jun-14 06:59N 22°14' E 113°48'715.6
2019-Jun-14 06:30N 22°21' E 113°47'815.2
2019-Jun-14 06:00N 22°29' E 113°45'815.3
2019-Jun-14 05:30N 22°36' E 113°43'2 0.6
2019-Jun-14 02:07N 22°38' E 113°41'0 0.0
2019-Jun-14 01:01N 22°38' E 113°41'0 0.4
2019-Jun-14 00:22N 22°37' E 113°41'4 9.3
2019-Jun-14 00:00N 22°34' E 113°43'713.9
2019-Jun-13 23:29N 22°27' E 113°45'714.3
2019-Jun-13 23:00N 22°21' E 113°48'715.0
2019-Jun-13 22:30N 22°13' E 113°48'610.9
2019-Jun-13 21:59N 22°08' E 113°48'4 7.6
2019-Jun-13 21:30N 22°06' E 113°52'611.4
2019-Jun-13 21:00N 22°08' E 113°58'1 2.3
2019-Jun-13 20:28N 22°08' E 113°59'0 0.4
2019-Jun-13 19:58N 22°08' E 113°59'0 0.1
2019-Jun-13 19:25N 22°08' E 113°59'1 1.5
2019-Jun-13 19:00N 22°08' E 114°00'10 5.5
2019-Jun-13 17:17N 22°14' E 114°08'311.7
2019-Jun-13 17:01N 22°17' E 114°06'3 6.1
2019-Jun-13 16:30N 22°20' E 114°07'0 0.7
2019-Jun-13 15:59N 22°20' E 114°08'0 0.0
2019-Jun-13 15:26N 22°20' E 114°08'0 0.0
2019-Jun-13 14:53N 22°20' E 114°08'0 0.0
2019-Jun-13 14:30N 22°20' E 114°08'0 0.0
2019-Jun-13 14:00N 22°20' E 114°08'0 0.0
2019-Jun-13 13:30N 22°20' E 114°08'0 0.0
2019-Jun-13 13:00N 22°20' E 114°08'0 0.0
2019-Jun-13 12:30N 22°20' E 114°08'0 0.0
2019-Jun-13 12:00N 22°20' E 114°08'0 0.0
2019-Jun-13 11:30N 22°20' E 114°08'0 0.0
2019-Jun-13 11:00N 22°20' E 114°08'0 0.0
2019-Jun-13 10:30N 22°20' E 114°08'0 0.3
2019-Jun-13 10:01N 22°20' E 114°08'3 6.0
2019-Jun-13 09:31N 22°18' E 114°05'0 0.3
2019-Jun-13 08:58N 22°18' E 114°05'0 0.1
2019-Jun-13 08:28N 22°18' E 114°05'0 0.0
2019-Jun-13 07:58N 22°18' E 114°05'0 0.2
2019-Jun-13 07:28N 22°18' E 114°05'0 0.1
2019-Jun-13 06:58N 22°18' E 114°05'0 0.1
2019-Jun-13 06:28N 22°18' E 114°05'0 0.1
2019-Jun-13 05:55N 22°18' E 114°05'0 0.0
2019-Jun-13 05:28N 22°18' E 114°05'0 0.0
2019-Jun-13 04:58N 22°18' E 114°05'0 0.0
2019-Jun-13 04:28N 22°18' E 114°05'0 0.0
2019-Jun-13 03:55N 22°18' E 114°05'0 0.0
2019-Jun-13 03:28N 22°18' E 114°05'0 0.0
2019-Jun-13 02:58N 22°18' E 114°05'0 0.1
2019-Jun-13 02:25N 22°18' E 114°05'0 0.0
2019-Jun-13 01:58N 22°18' E 114°05'0 0.0
2019-Jun-13 01:28N 22°18' E 114°05'0 0.1
2019-Jun-13 00:55N 22°18' E 114°05'0 0.1
2019-Jun-13 00:28N 22°18' E 114°05'0 0.1
2019-Jun-12 23:58N 22°18' E 114°05'0 0.1
2019-Jun-12 23:28N 22°18' E 114°05'0 0.1
2019-Jun-12 22:58N 22°18' E 114°05'0 0.0
2019-Jun-12 22:28N 22°18' E 114°05'0 0.1
2019-Jun-12 21:58N 22°18' E 114°05'0 0.2
2019-Jun-12 21:29N 22°18' E 114°05'3 5.7
2019-Jun-12 21:01N 22°20' E 114°07'0 0.3
2019-Jun-12 20:19N 22°20' E 114°07'0 0.0
2019-Jun-12 19:58N 22°20' E 114°07'0 0.0
2019-Jun-12 19:28N 22°20' E 114°07'0 0.0
2019-Jun-12 18:58N 22°20' E 114°07'0 0.0
2019-Jun-12 18:25N 22°20' E 114°07'0 0.0
2019-Jun-12 17:52N 22°20' E 114°07'0 0.0
2019-Jun-12 17:28N 22°20' E 114°07'0 0.0
2019-Jun-12 16:58N 22°20' E 114°07'0 0.0
2019-Jun-12 16:25N 22°20' E 114°07'0 0.0
2019-Jun-12 15:58N 22°20' E 114°07'0 0.0
2019-Jun-12 15:28N 22°20' E 114°07'0 0.0
2019-Jun-12 14:58N 22°20' E 114°07'0 0.0
2019-Jun-12 14:28N 22°20' E 114°07'0 0.0
2019-Jun-12 13:58N 22°20' E 114°07'0 0.0
2019-Jun-12 13:25N 22°20' E 114°07'0 0.0
2019-Jun-12 12:58N 22°20' E 114°07'0 0.0
2019-Jun-12 12:25N 22°20' E 114°07'0 0.0
2019-Jun-12 11:55N 22°20' E 114°07'0 0.0
2019-Jun-12 11:25N 22°20' E 114°07'0 0.0
2019-Jun-12 10:58N 22°20' E 114°07'0 0.0
2019-Jun-12 10:28N 22°20' E 114°07'0 0.0
2019-Jun-12 09:58N 22°20' E 114°07'0 0.0
2019-Jun-12 09:28N 22°20' E 114°07'0 0.0
2019-Jun-12 08:58N 22°20' E 114°07'0 0.0
2019-Jun-12 08:28N 22°20' E 114°07'0 0.0
2019-Jun-12 07:59N 22°20' E 114°07'0 0.0
2019-Jun-12 07:25N 22°20' E 114°07'0 0.0
2019-Jun-12 06:58N 22°20' E 114°07'0 0.0
2019-Jun-12 06:28N 22°20' E 114°07'0 0.0
2019-Jun-12 05:58N 22°20' E 114°07'0 0.0
2019-Jun-12 05:28N 22°20' E 114°07'0 0.0
2019-Jun-12 04:58N 22°20' E 114°07'0 0.0
2019-Jun-12 04:25N 22°20' E 114°07'0 0.0
2019-Jun-12 03:58N 22°20' E 114°07'0 0.0
2019-Jun-12 03:25N 22°20' E 114°07'0 0.0
2019-Jun-12 02:58N 22°20' E 114°07'0 0.0
2019-Jun-12 02:28N 22°20' E 114°07'0 0.0
2019-Jun-12 01:28N 22°20' E 114°07'0 1.0
2019-Jun-12 01:00N 22°20' E 114°07'3 4.8
2019-Jun-12 00:27N 22°18' E 114°05'0 0.1
2019-Jun-12 00:00N 22°18' E 114°05'0 0.0
2019-Jun-11 23:30N 22°18' E 114°05'0 0.0
2019-Jun-11 23:00N 22°18' E 114°05'0 0.1
2019-Jun-11 22:24N 22°18' E 114°05'0 0.1
2019-Jun-11 21:57N 22°18' E 114°05'0 0.1
2019-Jun-11 21:30N 22°18' E 114°05'0 0.1
2019-Jun-11 21:00N 22°18' E 114°05'0 0.1
2019-Jun-11 20:30N 22°18' E 114°05'0 0.0
2019-Jun-11 20:00N 22°18' E 114°05'2 3.6
2019-Jun-11 19:30N 22°20' E 114°05'611.1
2019-Jun-11 19:00N 22°21' E 113°59'8 7.7
2019-Jun-11 17:55N 22°27' E 113°53'0 0.2
2019-Jun-11 17:10N 22°27' E 113°53'0 0.0
2019-Jun-11 16:55N 22°27' E 113°53'0 0.0
2019-Jun-11 16:15N 22°27' E 113°53'0 0.0
2019-Jun-11 15:55N 22°27' E 113°53'0 0.0
2019-Jun-11 15:30N 22°27' E 113°53'0 0.0
2019-Jun-11 14:55N 22°27' E 113°53'0 0.0
2019-Jun-11 14:14N 22°27' E 113°53'0 0.0
2019-Jun-11 14:00N 22°27' E 113°53'0 0.0
2019-Jun-11 13:14N 22°27' E 113°53'0 0.0
2019-Jun-11 12:54N 22°27' E 113°53'0 0.0
2019-Jun-11 12:14N 22°27' E 113°53'0 0.0
2019-Jun-11 12:00N 22°27' E 113°53'0 0.0
2019-Jun-11 11:11N 22°27' E 113°53'0 0.0
2019-Jun-11 10:59N 22°27' E 113°53'0 0.0
2019-Jun-11 10:30N 22°27' E 113°53'0 0.0
2019-Jun-11 09:33N 22°27' E 113°53'0 0.1
2019-Jun-11 09:13N 22°27' E 113°53'0 0.1
2019-Jun-11 09:00N 22°27' E 113°53'0 0.6
2019-Jun-11 08:30N 22°27' E 113°53'3 6.0
2019-Jun-11 07:59N 22°24' E 113°54'5 9.9
2019-Jun-11 07:30N 22°21' E 113°58'611.8
2019-Jun-11 07:01N 22°21' E 114°04'611.2
2019-Jun-11 06:29N 22°16' E 114°07'41314.8
2019-Jun-10 02:37N 25°24' E 120°49'615.5
2019-Jun-10 02:15N 25°27' E 120°54'415.7
2019-Jun-10 01:59N 25°30' E 120°57'1015.6
2019-Jun-10 01:21N 25°36' E 121°06'715.3
2019-Jun-10 00:55N 25°40' E 121°12'715.4
2019-Jun-10 00:26N 25°45' E 121°18'1015.8
2019-Jun-09 23:47N 25°51' E 121°27'83416.7
2019-Jun-07 21:48N 33°38' E 134°43'1117.1
2019-Jun-07 21:11N 33°46' E 134°51'317.4
2019-Jun-07 21:00N 33°49' E 134°54'816.9
2019-Jun-07 20:30N 33°56' E 134°57'918.2
2019-Jun-07 20:00N 34°05' E 134°57'816.7
2019-Jun-07 19:30N 34°14' E 134°58'714.9
2019-Jun-07 19:00N 34°21' E 135°00'917.1
2019-Jun-07 18:30N 34°27' E 135°07'917.3
2019-Jun-07 18:00N 34°34' E 135°14'611.9
2019-Jun-07 17:30N 34°40' E 135°14'0 0.8
2019-Jun-07 17:00N 34°40' E 135°14'0 0.0
2019-Jun-07 16:24N 34°40' E 135°14'0 0.0
2019-Jun-07 15:53N 34°40' E 135°14'0 0.0
2019-Jun-07 15:29N 34°40' E 135°14'0 0.0
2019-Jun-07 14:53N 34°40' E 135°14'0 0.0
2019-Jun-07 14:23N 34°40' E 135°14'0 0.0
2019-Jun-07 13:59N 34°40' E 135°14'0 0.0
2019-Jun-07 13:29N 34°40' E 135°14'0 0.0
2019-Jun-07 12:59N 34°40' E 135°14'0 0.0
2019-Jun-07 12:30N 34°40' E 135°14'0 0.0
2019-Jun-07 11:59N 34°40' E 135°14'0 0.0
2019-Jun-07 11:30N 34°40' E 135°14'0 0.0
2019-Jun-07 10:59N 34°40' E 135°14'0 0.0
2019-Jun-07 10:29N 34°40' E 135°14'0 0.0
2019-Jun-07 10:00N 34°40' E 135°14'0 0.0
2019-Jun-07 09:29N 34°40' E 135°14'0 0.0
2019-Jun-07 08:59N 34°40' E 135°14'0 0.0
2019-Jun-07 08:29N 34°40' E 135°14'0 0.0
2019-Jun-07 07:53N 34°40' E 135°14'0 0.0
2019-Jun-07 07:29N 34°40' E 135°14'0 0.0
2019-Jun-07 06:59N 34°40' E 135°14'0 0.0
2019-Jun-07 06:29N 34°40' E 135°14'0 0.0
2019-Jun-07 05:35N 34°40' E 135°14'0 0.0
2019-Jun-07 05:29N 34°40' E 135°14'0 0.0
2019-Jun-07 04:59N 34°40' E 135°14'0 0.0
2019-Jun-07 04:26N 34°40' E 135°14'0 0.0
2019-Jun-07 03:59N 34°40' E 135°14'0 0.0
2019-Jun-07 03:29N 34°40' E 135°14'0 0.0
2019-Jun-07 03:00N 34°40' E 135°14'0 0.0
2019-Jun-07 02:30N 34°40' E 135°14'0 0.0
2019-Jun-07 01:59N 34°40' E 135°14'0 0.0
2019-Jun-07 01:23N 34°40' E 135°14'0 0.0
2019-Jun-07 00:59N 34°40' E 135°14'0 0.1
2019-Jun-07 00:29N 34°40' E 135°14'0 0.1
2019-Jun-06 23:53N 34°40' E 135°14'0 0.1
2019-Jun-06 23:29N 34°40' E 135°14'0 0.1
2019-Jun-06 22:41N 34°40' E 135°14'0 0.2
2019-Jun-06 22:29N 34°40' E 135°14'2 4.4
2019-Jun-06 22:00N 34°39' E 135°16'1 1.9
2019-Jun-06 21:28N 34°38' E 135°16'0 0.1
2019-Jun-06 20:58N 34°38' E 135°16'0 0.0
2019-Jun-06 20:28N 34°38' E 135°16'0 0.2
2019-Jun-06 19:58N 34°38' E 135°16'0 0.1
2019-Jun-06 19:28N 34°38' E 135°16'0 0.0
2019-Jun-06 18:58N 34°38' E 135°16'0 0.0
2019-Jun-06 18:28N 34°38' E 135°16'0 0.0
2019-Jun-06 17:58N 34°38' E 135°16'0 0.0
2019-Jun-06 17:28N 34°38' E 135°16'0 0.0
2019-Jun-06 16:58N 34°38' E 135°16'0 0.0
2019-Jun-06 16:28N 34°38' E 135°16'0 0.0
2019-Jun-06 15:58N 34°37' E 135°16'0 0.1
2019-Jun-06 15:28N 34°37' E 135°16'0 0.1
2019-Jun-06 14:58N 34°37' E 135°16'0 0.2
2019-Jun-06 14:28N 34°38' E 135°16'0 0.1
2019-Jun-06 13:58N 34°38' E 135°16'0 0.0
2019-Jun-06 13:28N 34°38' E 135°16'0 0.0
2019-Jun-06 12:58N 34°38' E 135°16'0 0.0
2019-Jun-06 12:28N 34°38' E 135°16'0 0.0
2019-Jun-06 11:58N 34°38' E 135°16'0 0.0
2019-Jun-06 11:28N 34°38' E 135°16'0 0.1
2019-Jun-06 10:58N 34°38' E 135°16'0 0.1
2019-Jun-06 10:28N 34°38' E 135°16'0 0.0
2019-Jun-06 09:58N 34°38' E 135°16'0 0.0
2019-Jun-06 09:28N 34°38' E 135°16'0 0.0
2019-Jun-06 08:58N 34°38' E 135°16'0 0.0
2019-Jun-06 08:28N 34°38' E 135°16'0 0.0
2019-Jun-06 07:58N 34°38' E 135°16'0 0.0
2019-Jun-06 07:28N 34°38' E 135°16'0 0.0
2019-Jun-06 06:52N 34°38' E 135°16'0 0.1
2019-Jun-06 06:28N 34°38' E 135°16'0 0.0
2019-Jun-06 05:55N 34°38' E 135°16'0 0.2
2019-Jun-06 05:28N 34°38' E 135°16'0 0.2
2019-Jun-06 04:58N 34°38' E 135°16'0 0.1
2019-Jun-06 04:28N 34°38' E 135°16'0 0.0
2019-Jun-06 03:55N 34°38' E 135°16'0 0.1
2019-Jun-06 03:28N 34°38' E 135°16'0 0.0
2019-Jun-06 02:58N 34°38' E 135°16'0 0.0
2019-Jun-06 02:28N 34°38' E 135°16'0 0.0
2019-Jun-06 01:58N 34°38' E 135°16'0 0.0
2019-Jun-06 01:28N 34°38' E 135°16'0 0.0
2019-Jun-06 00:58N 34°38' E 135°16'0 0.0
2019-Jun-06 00:28N 34°38' E 135°16'0 0.0
2019-Jun-05 23:58N 34°38' E 135°16'0 0.0
2019-Jun-05 23:28N 34°38' E 135°16'0 0.0
2019-Jun-05 22:58N 34°38' E 135°16'0 0.2
2019-Jun-05 22:31N 34°38' E 135°16'2 4.7
2019-Jun-05 22:01N 34°35' E 135°15'816.7
2019-Jun-05 21:31N 34°29' E 135°09'816.9
2019-Jun-05 21:00N 34°22' E 135°03'815.9
2019-Jun-05 20:30N 34°15' E 134°59'713.6
2019-Jun-05 20:00N 34°08' E 134°59'3 6.3
2019-Jun-05 19:30N 34°05' E 134°59'713.3
2019-Jun-05 19:00N 33°58' E 134°59'816.1
2019-Jun-05 18:29N 33°50' E 134°58'917.0
2019-Jun-05 17:59N 33°42' E 135°03'  

Dump ship's entire track history